Time;durP1;ratioP1;P1;durP2;ratioP2;P2;SDS_P1;SDS_P2;PMS_P1;PMS_P2;Temp;Humidity;BMP_temperature;BMP_pressure;BME280_temperature;BME280_humidity;BME280_pressure;Samples;Min_cycle;Max_cycle;Signal;HPM_P1;HPM_P2
2023/02/04 00:01:56;;;;;;;;;;;;;;;;;;4974163;28;19944;-82
2023/02/04 00:04:22;;;;;;;;;;;;;;;;;;4954191;28;19971;-82
2023/02/04 00:06:48;;;;;;;;;;;;;;;;;;4958500;28;20452;-82
2023/02/04 00:09:15;;;;;;;;;;;;;;;;;;4960968;28;20514;-84
2023/02/04 00:11:44;;;;;;;;;;;;;;;;;;4969835;28;19921;-82
2023/02/04 00:14:10;;;;;;;;;;;;;;;;;;4965493;28;20277;-82
2023/02/04 00:16:36;;;;;;;;;;;;;;;;;;4966762;28;19972;-84
2023/02/04 00:19:02;;;;;;;;;;;;;;;;;;4981828;28;19925;-82
2023/02/04 00:21:28;;;;;;;;;;;;;;;;;;4967908;28;19925;-82
2023/02/04 00:23:54;;;;;;;;;;;;;;;;;;4970023;28;19925;-82
2023/02/04 00:26:20;;;;;;;;;;;;;;;;;;4966671;28;19943;-82
2023/02/04 00:28:46;;;;;;;;;;;;;;;;;;4985038;28;20393;-83
2023/02/04 00:31:12;;;;;;;;;;;;;;;;;;4985282;28;19927;-82
2023/02/04 00:33:38;;;;;;;;;;;;;;;;;;4984438;28;19925;-83
2023/02/04 00:36:04;;;;;;;;;;;;;;;;;;4984987;28;19999;-83
2023/02/04 00:38:30;;;;;;;;;;;;;;;;;;4967907;28;20027;-83
2023/02/04 00:40:56;;;;;;;;;;;;;;;;;;4969310;28;20556;-83
2023/02/04 00:43:22;;;;;;;;;;;;;;;;;;5000100;28;20346;-84
2023/02/04 00:45:48;;;;;;;;;;;;;;;;;;4966010;28;19917;-83
2023/02/04 00:48:13;;;;;;;;;;;;;;;;;;4984655;28;19925;-84
2023/02/04 00:50:43;;;;;;;;;;;;;;;;;;4966581;28;19923;-84
2023/02/04 00:53:09;;;;;;;;;;;;;;;;;;4967612;28;19922;-83
2023/02/04 00:55:35;;;;;;;;;;;;;;;;;;4979970;28;19922;-83
2023/02/04 00:58:01;;;;;;;;;;;;;;;;;;4964493;28;20497;-82
2023/02/04 01:00:26;;;;;;;;;;;;;;;;;;4963062;28;19964;-82
2023/02/04 01:02:52;;;;;;;;;;;;;;;;;;4969531;28;19929;-82
2023/02/04 01:05:18;;;;;;;;;;;;;;;;;;4961783;28;19984;-82
2023/02/04 01:07:47;;;;;;;;;;;;;;;;;;4969224;28;20260;-82
2023/02/04 01:10:14;;;;;;;;;;;;;;;;;;4982184;28;19917;-82
2023/02/04 01:12:40;;;;;;;;;;;;;;;;;;4979490;28;20012;-83
2023/02/04 01:15:06;;;;;;;;;;;;;;;;;;4980956;28;19917;-83
2023/02/04 01:17:32;;;;;;;;;;;;;;;;;;4965168;28;19917;-82
2023/02/04 01:19:57;;;;;;;;;;;;;;;;;;4981665;28;19932;-82
2023/02/04 01:22:23;;;;;;;;;;;;;;;;;;4982769;28;19956;-81
2023/02/04 01:24:49;;;;;;;;;;;;;;;;;;4964414;28;20075;-82
2023/02/04 01:27:15;;;;;;;;;;;;;;;;;;4967697;28;20379;-82
2023/02/04 01:29:41;;;;;;;;;;;;;;;;;;4977191;28;19917;-82
2023/02/04 01:32:07;;;;;;;;;;;;;;;;;;4982386;28;20388;-83
2023/02/04 01:34:33;;;;;;;;;;;;;;;;;;4970968;28;20068;-82
2023/02/04 01:36:59;;;;;;;;;;;;;;;;;;4967513;28;19921;-82
2023/02/04 01:39:25;;;;;;;;;;;;;;;;;;4979484;28;19921;-82
2023/02/04 01:41:51;;;;;;;;;;;;;;;;;;4964989;28;19952;-82
2023/02/04 01:44:20;;;;;;;;;;;;;;;;;;4961318;28;19967;-83
2023/02/04 01:46:46;;;;;;;;;;;;;;;;;;4981105;28;20045;-82
2023/02/04 01:49:12;;;;;;;;;;;;;;;;;;4980448;28;20051;-82
2023/02/04 01:51:38;;;;;;;;;;;;;;;;;;4967014;28;20029;-82
2023/02/04 01:54:04;;;;;;;;;;;;;;;;;;4964035;28;19952;-83
2023/02/04 01:56:30;;;;;;;;;;;;;;;;;;4971809;28;19957;-82
2023/02/04 01:58:56;;;;;;;;;;;;;;;;;;4971850;28;19971;-82
2023/02/04 02:01:22;;;;;;;;;;;;;;;;;;4975032;28;20419;-83
2023/02/04 02:03:48;;;;;;;;;;;;;;;;;;4973092;28;19925;-82
2023/02/04 02:06:13;;;;;;;;;;;;;;;;;;4987921;28;19917;-82
2023/02/04 02:08:39;;;;;;;;;;;;;;;;;;4969166;28;20044;-81
2023/02/04 02:11:05;;;;;;;;;;;;;;;;;;4984226;28;19927;-82
2023/02/04 02:13:31;;;;;;;;;;;;;;;;;;4966628;28;19918;-82
2023/02/04 02:15:57;;;;;;;;;;;;;;;;;;4969849;28;20048;-82
2023/02/04 02:18:24;;;;;;;;;;;;;;;;;;4987813;28;20000;-82
2023/02/04 02:20:50;;;;;;;;;;;;;;;;;;4973214;28;19924;-82
2023/02/04 02:23:15;;;;;;;;;;;;;;;;;;4963323;28;19917;-83
2023/02/04 02:25:41;;;;;;;;;;;;;;;;;;4965120;28;20018;-82
2023/02/04 02:28:07;;;;;;;;;;;;;;;;;;4960143;28;19953;-82
2023/02/04 02:30:33;;;;;;;;;;;;;;;;;;4961780;28;20379;-81
2023/02/04 02:32:59;;;;;;;;;;;;;;;;;;4964466;28;19917;-83
2023/02/04 02:35:25;;;;;;;;;;;;;;;;;;4966303;28;19972;-83
2023/02/04 02:37:51;;;;;;;;;;;;;;;;;;4961320;28;20376;-82
2023/02/04 02:40:17;;;;;;;;;;;;;;;;;;4971363;28;20411;-83
2023/02/04 02:42:43;;;;;;;;;;;;;;;;;;4983503;28;19967;-82
2023/02/04 02:45:09;;;;;;;;;;;;;;;;;;4981085;28;19919;-82
2023/02/04 02:47:35;;;;;;;;;;;;;;;;;;4967104;28;20553;-83
2023/02/04 02:50:01;;;;;;;;;;;;;;;;;;4983340;28;19925;-83
2023/02/04 02:52:27;;;;;;;;;;;;;;;;;;4965903;28;19917;-82
2023/02/04 02:54:52;;;;;;;;;;;;;;;;;;4966360;28;20403;-83
2023/02/04 02:57:18;;;;;;;;;;;;;;;;;;4983704;28;20009;-82
2023/02/04 02:59:47;;;;;;;;;;;;;;;;;;4965719;28;20698;-83
2023/02/04 03:02:16;;;;;;;;;;;;;;;;;;4984457;28;19968;-82
2023/02/04 03:04:42;;;;;;;;;;;;;;;;;;4964527;28;20623;-82
2023/02/04 03:07:11;;;;;;;;;;;;;;;;;;4975141;28;19922;-83
2023/02/04 03:09:37;;;;;;;;;;;;;;;;;;4967916;28;19979;-83
2023/02/04 03:12:04;;;;;;;;;;;;;;;;;;4967443;28;19929;-82
2023/02/04 03:14:30;;;;;;;;;;;;;;;;;;4963876;28;19926;-82
2023/02/04 03:16:56;;;;;;;;;;;;;;;;;;4983417;28;19917;-82
2023/02/04 03:19:22;;;;;;;;;;;;;;;;;;4966296;28;20008;-82
2023/02/04 03:21:51;;;;;;;;;;;;;;;;;;4986428;28;20012;-83
2023/02/04 03:24:19;;;;;;;;;;;;;;;;;;4985150;28;20351;-82
2023/02/04 03:26:45;;;;;;;;;;;;;;;;;;4968250;28;20019;-82
2023/02/04 03:29:11;;;;;;;;;;;;;;;;;;4964923;28;20589;-81
2023/02/04 03:31:37;;;;;;;;;;;;;;;;;;4982026;28;19925;-82
2023/02/04 03:34:03;;;;;;;;;;;;;;;;;;4982282;28;19918;-82
2023/02/04 03:36:29;;;;;;;;;;;;;;;;;;4965430;28;20432;-82
2023/02/04 03:38:55;;;;;;;;;;;;;;;;;;4965955;28;20351;-82
2023/02/04 03:41:21;;;;;;;;;;;;;;;;;;4972214;28;19925;-82
2023/02/04 03:43:47;;;;;;;;;;;;;;;;;;4983317;28;20007;-83
2023/02/04 03:46:16;;;;;;;;;;;;;;;;;;4968570;28;19917;-82
2023/02/04 03:48:42;;;;;;;;;;;;;;;;;;4983335;28;19988;-82
2023/02/04 03:51:08;;;;;;;;;;;;;;;;;;4981611;28;19920;-82
2023/02/04 03:53:34;;;;;;;;;;;;;;;;;;4972093;28;20004;-82
2023/02/04 03:56:00;;;;;;;;;;;;;;;;;;4973332;28;20033;-83
2023/02/04 03:58:25;;;;;;;;;;;;;;;;;;4967836;28;19921;-82
2023/02/04 04:00:52;;;;;;;;;;;;;;;;;;4976991;28;20008;-82
2023/02/04 04:03:18;;;;;;;;;;;;;;;;;;4981444;28;20056;-82
2023/02/04 04:05:44;;;;;;;;;;;;;;;;;;4969128;28;20004;-82
2023/02/04 04:08:10;;;;;;;;;;;;;;;;;;5001295;28;20522;-83
2023/02/04 04:10:35;;;;;;;;;;;;;;;;;;4968300;28;20531;-82
2023/02/04 04:13:01;;;;;;;;;;;;;;;;;;4984013;28;19917;-82
2023/02/04 04:15:27;;;;;;;;;;;;;;;;;;4967550;28;19925;-82
2023/02/04 04:17:53;;;;;;;;;;;;;;;;;;4969706;28;19917;-82
2023/02/04 04:20:24;;;;;;;;;;;;;;;;;;4967066;28;19924;-82
2023/02/04 04:22:50;;;;;;;;;;;;;;;;;;4986465;28;19936;-82
2023/02/04 04:25:16;;;;;;;;;;;;;;;;;;4981584;28;20327;-82
2023/02/04 04:27:41;;;;;;;;;;;;;;;;;;4967369;28;20128;-83
2023/02/04 04:30:07;;;;;;;;;;;;;;;;;;4984175;28;20032;-82
2023/02/04 04:32:33;;;;;;;;;;;;;;;;;;4972167;28;19925;-82
2023/02/04 04:34:59;;;;;;;;;;;;;;;;;;4962932;28;19971;-82
2023/02/04 04:37:25;;;;;;;;;;;;;;;;;;4966184;28;19921;-82
2023/02/04 04:39:51;;;;;;;;;;;;;;;;;;4963057;28;19926;-82
2023/02/04 04:42:17;;;;;;;;;;;;;;;;;;4978350;28;19924;-82
2023/02/04 04:44:43;;;;;;;;;;;;;;;;;;4967957;28;19956;-82
2023/02/04 04:47:09;;;;;;;;;;;;;;;;;;4980895;28;20464;-82
2023/02/04 04:49:35;;;;;;;;;;;;;;;;;;4963487;28;19925;-82
2023/02/04 04:52:01;;;;;;;;;;;;;;;;;;4967762;28;20450;-82
2023/02/04 04:54:27;;;;;;;;;;;;;;;;;;4966545;28;20427;-82
2023/02/04 04:56:53;;;;;;;;;;;;;;;;;;4981407;28;20004;-82
2023/02/04 04:59:19;;;;;;;;;;;;;;;;;;4964271;28;19925;-82
2023/02/04 05:01:44;;;;;;;;;;;;;;;;;;4966899;28;19922;-83
2023/02/04 05:04:13;;;;;;;;;;;;;;;;;;4967225;28;19917;-82
2023/02/04 05:06:39;;;;;;;;;;;;;;;;;;4967431;28;19925;-82
2023/02/04 05:09:05;;;;;;;;;;;;;;;;;;4982450;28;19928;-82
2023/02/04 05:11:31;;;;;;;;;;;;;;;;;;4967140;28;19922;-82
2023/02/04 05:13:57;;;;;;;;;;;;;;;;;;4966435;28;19925;-82
2023/02/04 05:16:23;;;;;;;;;;;;;;;;;;4964221;28;20019;-82
2023/02/04 05:18:49;;;;;;;;;;;;;;;;;;4983832;28;20060;-82
2023/02/04 05:21:15;;;;;;;;;;;;;;;;;;4966764;28;19936;-83
2023/02/04 05:23:41;;;;;;;;;;;;;;;;;;4982850;28;20019;-83
2023/02/04 05:26:07;;;;;;;;;;;;;;;;;;4966613;28;19925;-82
2023/02/04 05:28:33;;;;;;;;;;;;;;;;;;4981277;28;20007;-83
2023/02/04 05:31:02;;;;;;;;;;;;;;;;;;4986574;28;19921;-83
2023/02/04 05:33:28;;;;;;;;;;;;;;;;;;4970298;28;19928;-83
2023/02/04 05:35:54;;;;;;;;;;;;;;;;;;4968279;28;19964;-83
2023/02/04 05:38:20;;;;;;;;;;;;;;;;;;4965813;28;19921;-85
2023/02/04 05:40:46;;;;;;;;;;;;;;;;;;4981921;28;20004;-84
2023/02/04 05:43:14;;;;;;;;;;;;;;;;;;4969077;28;19944;-83
2023/02/04 05:45:40;;;;;;;;;;;;;;;;;;5004114;23;19964;-81
2023/02/04 05:48:06;;;;;;;;;;;;;;;;;;4967385;28;20521;-81
2023/02/04 05:50:32;;;;;;;;;;;;;;;;;;4966192;28;20394;-82
2023/02/04 05:52:58;;;;;;;;;;;;;;;;;;4971702;28;20545;-84
2023/02/04 05:55:24;;;;;;;;;;;;;;;;;;4973263;28;20055;-82
2023/02/04 05:57:50;;;;;;;;;;;;;;;;;;4949185;28;19922;-81
2023/02/04 06:00:16;;;;;;;;;;;;;;;;;;4956565;28;19936;-81
2023/02/04 06:02:42;;;;;;;;;;;;;;;;;;4962166;28;19973;-82
2023/02/04 06:05:11;;;;;;;;;;;;;;;;;;4943943;28;19921;-84
2023/02/04 06:07:37;;;;;;;;;;;;;;;;;;4977081;28;19947;-83
2023/02/04 06:10:03;;;;;;;;;;;;;;;;;;4975712;28;19929;-85
2023/02/04 06:12:29;;;;;;;;;;;;;;;;;;4956999;28;19921;-83
2023/02/04 06:14:55;;;;;;;;;;;;;;;;;;4955515;28;20352;-84
2023/02/04 06:17:21;;;;;;;;;;;;;;;;;;4974812;28;19954;-85
2023/02/04 06:19:46;;;;;;;;;;;;;;;;;;4957999;28;19926;-86
2023/02/04 06:22:12;;;;;;;;;;;;;;;;;;4949344;28;19918;-82
2023/02/04 06:24:38;;;;;;;;;;;;;;;;;;4958535;28;19928;-85
2023/02/04 06:27:04;;;;;;;;;;;;;;;;;;4959918;28;20087;-83
2023/02/04 06:29:30;;;;;;;;;;;;;;;;;;4959091;28;19932;-83
2023/02/04 06:31:56;;;;;;;;;;;;;;;;;;4950967;28;20034;-83
2023/02/04 06:34:25;;;;;;;;;;;;;;;;;;4949780;28;19973;-82
2023/02/04 06:36:51;;;;;;;;;;;;;;;;;;4950952;28;19925;-81
2023/02/04 06:39:17;;;;;;;;;;;;;;;;;;4954142;28;19918;-83
2023/02/04 06:41:42;;;;;;;;;;;;;;;;;;4955307;28;19945;-84
2023/02/04 06:44:08;;;;;;;;;;;;;;;;;;4942696;28;19975;-83
2023/02/04 06:46:34;;;;;;;;;;;;;;;;;;4956612;28;19917;-82
2023/02/04 06:49:00;;;;;;;;;;;;;;;;;;4954292;28;19926;-82
2023/02/04 06:51:27;;;;;;;;;;;;;;;;;;4956521;28;20324;-82
2023/02/04 06:53:52;;;;;;;;;;;;;;;;;;4957464;28;19926;-84
2023/02/04 06:56:18;;;;;;;;;;;;;;;;;;4942617;28;20016;-83
2023/02/04 06:58:44;;;;;;;;;;;;;;;;;;4952932;28;20238;-82
2023/02/04 07:01:10;;;;;;;;;;;;;;;;;;4955138;28;19945;-81
2023/02/04 07:03:36;;;;;;;;;;;;;;;;;;4958226;28;19925;-81
2023/02/04 07:06:02;;;;;;;;;;;;;;;;;;4958297;28;19918;-82
2023/02/04 07:08:28;;;;;;;;;;;;;;;;;;4954326;28;19968;-81
2023/02/04 07:10:54;;;;;;;;;;;;;;;;;;4953862;28;19941;-85
2023/02/04 07:13:20;;;;;;;;;;;;;;;;;;4955779;28;19925;-83
2023/02/04 07:15:46;;;;;;;;;;;;;;;;;;4953374;28;19922;-81
2023/02/04 07:18:12;;;;;;;;;;;;;;;;;;4950968;28;19932;-82
2023/02/04 07:20:38;;;;;;;;;;;;;;;;;;4954743;28;19922;-82
2023/02/04 07:23:04;;;;;;;;;;;;;;;;;;4948058;28;19983;-86
2023/02/04 07:25:30;;;;;;;;;;;;;;;;;;4953973;28;19932;-82
2023/02/04 07:27:58;;;;;;;;;;;;;;;;;;4963840;28;19925;-82
2023/02/04 07:30:24;;;;;;;;;;;;;;;;;;4965929;28;19944;-81
2023/02/04 07:32:49;;;;;;;;;;;;;;;;;;4947712;28;19926;-82
2023/02/04 07:35:16;;;;;;;;;;;;;;;;;;4937785;28;20020;-84
2023/02/04 07:37:42;;;;;;;;;;;;;;;;;;4961035;28;20400;-81
2023/02/04 07:40:08;;;;;;;;;;;;;;;;;;4955438;28;19922;-83
2023/02/04 07:42:34;;;;;;;;;;;;;;;;;;4962569;28;19918;-82
2023/02/04 07:45:00;;;;;;;;;;;;;;;;;;4964077;28;20028;-84
2023/02/04 07:47:26;;;;;;;;;;;;;;;;;;4949630;28;20440;-85
2023/02/04 07:49:55;;;;;;;;;;;;;;;;;;4955260;28;19918;-84
2023/02/04 07:52:21;;;;;;;;;;;;;;;;;;4965630;28;19922;-84
2023/02/04 07:54:50;;;;;;;;;;;;;;;;;;4953951;28;19917;-83
2023/02/04 07:57:15;;;;;;;;;;;;;;;;;;4943504;28;19932;-82
2023/02/04 07:59:41;;;;;;;;;;;;;;;;;;4951866;28;19925;-82
2023/02/04 08:02:07;;;;;;;;;;;;;;;;;;4967678;28;19925;-86
2023/02/04 08:04:33;;;;;;;;;;;;;;;;;;4967305;28;19917;-83
2023/02/04 08:06:59;;;;;;;;;;;;;;;;;;4958522;28;19925;-81
2023/02/04 08:09:26;;;;;;;;;;;;;;;;;;4960163;28;19972;-82
2023/02/04 08:11:51;;;;;;;;;;;;;;;;;;4954510;28;19932;-83
2023/02/04 08:14:17;;;;;;;;;;;;;;;;;;4953116;28;19921;-82
2023/02/04 08:16:43;;;;;;;;;;;;;;;;;;4962283;28;20393;-82
2023/02/04 08:19:09;;;;;;;;;;;;;;;;;;4964030;28;20019;-85
2023/02/04 08:21:35;;;;;;;;;;;;;;;;;;4961672;28;20392;-83
2023/02/04 08:24:01;;;;;;;;;;;;;;;;;;4964281;28;19922;-82
2023/02/04 08:26:27;;;;;;;;;;;;;;;;;;4964520;28;19959;-82
2023/02/04 08:28:53;;;;;;;;;;;;;;;;;;4953553;28;20384;-82
2023/02/04 08:31:19;;;;;;;;;;;;;;;;;;4964784;28;19918;-82
2023/02/04 08:33:45;;;;;;;;;;;;;;;;;;4979016;28;19921;-85
2023/02/04 08:36:11;;;;;;;;;;;;;;;;;;4965901;28;20368;-82
2023/02/04 08:38:37;;;;;;;;;;;;;;;;;;4961569;28;19921;-84
2023/02/04 08:41:02;;;;;;;;;;;;;;;;;;4959916;28;19917;-84
2023/02/04 08:43:28;;;;;;;;;;;;;;;;;;4961667;28;19933;-83
2023/02/04 08:45:54;;;;;;;;;;;;;;;;;;4959343;28;19922;-82
2023/02/04 08:48:20;;;;;;;;;;;;;;;;;;4961742;28;19926;-82
2023/02/04 08:50:46;;;;;;;;;;;;;;;;;;4967291;28;20432;-82
2023/02/04 08:53:12;;;;;;;;;;;;;;;;;;4980519;28;19976;-84
2023/02/04 08:55:38;;;;;;;;;;;;;;;;;;4964807;28;19929;-82
2023/02/04 08:58:04;;;;;;;;;;;;;;;;;;4985104;28;19941;-82
2023/02/04 09:00:30;;;;;;;;;;;;;;;;;;4965401;28;19926;-83
2023/02/04 09:02:56;;;;;;;;;;;;;;;;;;4954436;28;19917;-82
2023/02/04 09:05:22;;;;;;;;;;;;;;;;;;4966499;28;19917;-83
2023/02/04 09:07:48;;;;;;;;;;;;;;;;;;4966275;28;19921;-82
2023/02/04 09:10:14;;;;;;;;;;;;;;;;;;4963582;28;20268;-82
2023/02/04 09:12:41;;;;;;;;;;;;;;;;;;4961994;28;19921;-85
2023/02/04 09:15:07;;;;;;;;;;;;;;;;;;4980436;28;20008;-82
2023/02/04 09:17:33;;;;;;;;;;;;;;;;;;4954712;28;20005;-87
2023/02/04 09:19:59;;;;;;;;;;;;;;;;;;4968313;28;19976;-84
2023/02/04 09:22:25;;;;;;;;;;;;;;;;;;4978656;28;20420;-82
2023/02/04 09:24:51;;;;;;;;;;;;;;;;;;4963249;28;20226;-85
2023/02/04 09:27:18;;;;;;;;;;;;;;;;;;4964784;28;19949;-82
2023/02/04 09:29:44;;;;;;;;;;;;;;;;;;4963434;28;20484;-81
2023/02/04 09:32:10;;;;;;;;;;;;;;;;;;4963313;28;19926;-83
2023/02/04 09:34:36;;;;;;;;;;;;;;;;;;4958604;28;19922;-87
2023/02/04 09:37:02;;;;;;;;;;;;;;;;;;4943506;28;19925;-82
2023/02/04 09:39:28;;;;;;;;;;;;;;;;;;4960236;28;19953;-83
2023/02/04 09:41:54;;;;;;;;;;;;;;;;;;4958495;28;20373;-85
2023/02/04 09:44:20;;;;;;;;;;;;;;;;;;4958923;28;19921;-82
2023/02/04 09:46:46;;;;;;;;;;;;;;;;;;4959422;28;19925;-82
2023/02/04 09:49:12;;;;;;;;;;;;;;;;;;4955009;28;19925;-81
2023/02/04 09:51:37;;;;;;;;;;;;;;;;;;4957267;28;19932;-82
2023/02/04 09:54:03;;;;;;;;;;;;;;;;;;4961567;28;19924;-83
2023/02/04 09:56:29;;;;;;;;;;;;;;;;;;4960810;28;19918;-82
2023/02/04 09:58:55;;;;;;;;;;;;;;;;;;4960903;28;20016;-83
2023/02/04 10:01:21;;;;;;;;;;;;;;;;;;4961623;28;20236;-85
2023/02/04 10:03:47;;;;;;;;;;;;;;;;;;4960955;28;20734;-83
2023/02/04 10:06:13;;;;;;;;;;;;;;;;;;4962429;28;20308;-85
2023/02/04 10:08:39;;;;;;;;;;;;;;;;;;4965791;28;19926;-85
2023/02/04 10:11:08;;;;;;;;;;;;;;;;;;4960916;28;20528;-83
2023/02/04 10:13:33;;;;;;;;;;;;;;;;;;4956555;28;19926;-84
2023/02/04 10:15:59;;;;;;;;;;;;;;;;;;4959899;28;19928;-89
2023/02/04 10:18:25;;;;;;;;;;;;;;;;;;4963964;28;19932;-82
2023/02/04 10:20:51;;;;;;;;;;;;;;;;;;4974313;28;19976;-84
2023/02/04 10:23:17;;;;;;;;;;;;;;;;;;4962816;28;19917;-86
2023/02/04 10:25:43;;;;;;;;;;;;;;;;;;4974300;28;20288;-83
2023/02/04 10:28:09;;;;;;;;;;;;;;;;;;4960496;28;19926;-83
2023/02/04 10:30:35;;;;;;;;;;;;;;;;;;4954912;28;20016;-83
2023/02/04 10:33:01;;;;;;;;;;;;;;;;;;4959496;28;19926;-82
2023/02/04 10:35:27;;;;;;;;;;;;;;;;;;4961867;28;19921;-84
2023/02/04 10:37:53;;;;;;;;;;;;;;;;;;4962958;28;20404;-83
2023/02/04 10:40:18;;;;;;;;;;;;;;;;;;4960930;28;19930;-82
2023/02/04 10:42:44;;;;;;;;;;;;;;;;;;4960172;28;20004;-82
2023/02/04 10:45:10;;;;;;;;;;;;;;;;;;4974966;28;20573;-82
2023/02/04 10:47:36;;;;;;;;;;;;;;;;;;4958146;28;20299;-82
2023/02/04 10:50:04;;;;;;;;;;;;;;;;;;4961506;28;19917;-81
2023/02/04 10:52:30;;;;;;;;;;;;;;;;;;4947848;28;20028;-83
2023/02/04 10:54:57;;;;;;;;;;;;;;;;;;4959553;28;20363;-83
2023/02/04 10:57:22;;;;;;;;;;;;;;;;;;4974829;28;20400;-87
2023/02/04 10:59:48;;;;;;;;;;;;;;;;;;4958824;28;19925;-83
2023/02/04 11:02:14;;;;;;;;;;;;;;;;;;4964072;28;19929;-83
2023/02/04 11:04:40;;;;;;;;;;;;;;;;;;4965638;28;20004;-84
2023/02/04 11:07:06;;;;;;;;;;;;;;;;;;4965126;28;19932;-83
2023/02/04 11:09:32;;;;;;;;;;;;;;;;;;4966114;28;19921;-83
2023/02/04 11:11:59;;;;;;;;;;;;;;;;;;4951774;28;20394;-82
2023/02/04 11:14:25;;;;;;;;;;;;;;;;;;4960082;28;20100;-85
2023/02/04 11:16:53;;;;;;;;;;;;;;;;;;4966683;28;19983;-83
2023/02/04 11:19:19;;;;;;;;;;;;;;;;;;4964972;28;20409;-84
2023/02/04 11:21:45;;;;;;;;;;;;;;;;;;4969414;28;19921;-84
2023/02/04 11:24:11;;;;;;;;;;;;;;;;;;4974606;28;19956;-82
2023/02/04 11:26:37;;;;;;;;;;;;;;;;;;4965782;28;19952;-83
2023/02/04 11:29:07;;;;;;;;;;;;;;;;;;4964981;28;20638;-88
2023/02/04 11:31:33;;;;;;;;;;;;;;;;;;4945908;28;19918;-84
2023/02/04 11:33:58;;;;;;;;;;;;;;;;;;4968388;28;20071;-83
2023/02/04 11:36:24;;;;;;;;;;;;;;;;;;5002919;23;19929;-83
2023/02/04 11:38:50;;;;;;;;;;;;;;;;;;5007488;28;19943;-82
2023/02/04 11:41:19;;;;;;;;;;;;;;;;;;5008017;28;19925;-86
2023/02/04 11:43:45;;;;;;;;;;;;;;;;;;4991079;28;19921;-83
2023/02/04 11:46:11;;;;;;;;;;;;;;;;;;4991376;28;19920;-83
2023/02/04 11:48:37;;;;;;;;;;;;;;;;;;5002642;28;20347;-84
2023/02/04 11:51:04;;;;;;;;;;;;;;;;;;4992039;23;20519;-76
2023/02/04 11:53:30;;;;;;;;;;;;;;;;;;4945090;28;20007;-76
2023/02/04 11:55:56;;;;;;;;;;;;;;;;;;4953213;28;19927;-76
2023/02/04 11:58:24;;;;;;;;;;;;;;;;;;4960532;28;19918;-76
2023/02/04 12:00:50;;;;;;;;;;;;;;;;;;4953843;28;19926;-76
2023/02/04 12:03:16;;;;;;;;;;;;;;;;;;4963238;28;19952;-77
2023/02/04 12:05:42;;;;;;;;;;;;;;;;;;4951361;28;19921;-76
2023/02/04 12:08:08;;;;;;;;;;;;;;;;;;4950908;28;19925;-76
2023/02/04 12:10:34;;;;;;;;;;;;;;;;;;4959395;28;19917;-76
2023/02/04 12:13:00;;;;;;;;;;;;;;;;;;4949209;28;20297;-76
2023/02/04 12:15:26;;;;;;;;;;;;;;;;;;4942827;28;20879;-77
2023/02/04 12:17:52;;;;;;;;;;;;;;;;;;4948752;28;20013;-76
2023/02/04 12:20:18;;;;;;;;;;;;;;;;;;4935366;28;19919;-76
2023/02/04 12:22:44;;;;;;;;;;;;;;;;;;4943066;28;20066;-76
2023/02/04 12:25:15;;;;;;;;;;;;;;;;;;4952000;28;20314;-76
2023/02/04 12:27:41;;;;;;;;;;;;;;;;;;4948452;28;19972;-76
2023/02/04 12:30:08;;;;;;;;;;;;;;;;;;4940390;28;20004;-76
2023/02/04 12:32:33;;;;;;;;;;;;;;;;;;4939222;28;19918;-75
2023/02/04 12:34:59;;;;;;;;;;;;;;;;;;4947981;28;19925;-76
2023/02/04 12:37:25;;;;;;;;;;;;;;;;;;4944131;28;19922;-76
2023/02/04 12:39:51;;;;;;;;;;;;;;;;;;4942264;28;20060;-76
2023/02/04 12:42:17;;;;;;;;;;;;;;;;;;4931234;28;19917;-75
2023/02/04 12:44:43;;;;;;;;;;;;;;;;;;4940588;28;19925;-76
2023/02/04 12:47:09;;;;;;;;;;;;;;;;;;4941079;28;19926;-76
2023/02/04 12:49:36;;;;;;;;;;;;;;;;;;4932296;28;19922;-76
2023/02/04 12:52:02;;;;;;;;;;;;;;;;;;4930176;28;20376;-76
2023/02/04 12:54:28;;;;;;;;;;;;;;;;;;4937380;28;19918;-76
2023/02/04 12:56:57;;;;;;;;;;;;;;;;;;4932018;28;20108;-75
2023/02/04 12:59:23;;;;;;;;;;;;;;;;;;4943820;28;19947;-78
2023/02/04 13:01:49;;;;;;;;;;;;;;;;;;4932787;28;19981;-77
2023/02/04 13:04:15;;;;;;;;;;;;;;;;;;4940019;28;19922;-78
2023/02/04 13:06:40;;;;;;;;;;;;;;;;;;4917561;28;21184;-77
2023/02/04 13:09:06;;;;;;;;;;;;;;;;;;4939142;28;19949;-77
2023/02/04 13:11:32;;;;;;;;;;;;;;;;;;4940090;28;20385;-77
2023/02/04 13:13:58;;;;;;;;;;;;;;;;;;4945777;28;19918;-77
2023/02/04 13:16:25;;;;;;;;;;;;;;;;;;4949565;28;19929;-77
2023/02/04 13:18:51;;;;;;;;;;;;;;;;;;4946097;28;20304;-77
2023/02/04 13:21:16;;;;;;;;;;;;;;;;;;4943314;28;20396;-78
2023/02/04 13:23:43;;;;;;;;;;;;;;;;;;4918494;28;19930;-77
2023/02/04 13:26:09;;;;;;;;;;;;;;;;;;4947485;28;19922;-77
2023/02/04 13:28:35;;;;;;;;;;;;;;;;;;4947606;28;21142;-77
2023/02/04 13:31:01;;;;;;;;;;;;;;;;;;4946603;28;19922;-78
2023/02/04 13:33:27;;;;;;;;;;;;;;;;;;4962820;28;20451;-77
2023/02/04 13:35:53;;;;;;;;;;;;;;;;;;4952364;28;19932;-78
2023/02/04 13:38:18;;;;;;;;;;;;;;;;;;4958082;28;20036;-77
2023/02/04 13:40:44;;;;;;;;;;;;;;;;;;4957150;28;19917;-77
2023/02/04 13:43:10;;;;;;;;;;;;;;;;;;4960421;28;19976;-77
2023/02/04 13:45:36;;;;;;;;;;;;;;;;;;4949924;28;19934;-77
2023/02/04 13:48:02;;;;;;;;;;;;;;;;;;4949240;28;19922;-77
2023/02/04 13:50:28;;;;;;;;;;;;;;;;;;4950133;28;20012;-77
2023/02/04 13:52:54;;;;;;;;;;;;;;;;;;4948332;28;20443;-77
2023/02/04 13:55:20;;;;;;;;;;;;;;;;;;4935490;28;20000;-77
2023/02/04 13:57:46;;;;;;;;;;;;;;;;;;4932806;28;19972;-77
2023/02/04 14:00:12;;;;;;;;;;;;;;;;;;4952954;28;19917;-77
2023/02/04 14:02:38;;;;;;;;;;;;;;;;;;4947394;28;19928;-77
2023/02/04 14:05:04;;;;;;;;;;;;;;;;;;4953749;28;20336;-77
2023/02/04 14:07:32;;;;;;;;;;;;;;;;;;4951168;28;20373;-77
2023/02/04 14:09:58;;;;;;;;;;;;;;;;;;4934155;28;19925;-77
2023/02/04 14:12:23;;;;;;;;;;;;;;;;;;4957701;28;20276;-77
2023/02/04 14:14:49;;;;;;;;;;;;;;;;;;4950595;28;19922;-77
2023/02/04 14:17:15;;;;;;;;;;;;;;;;;;4932768;28;19928;-77
2023/02/04 14:19:41;;;;;;;;;;;;;;;;;;4949222;28;20163;-78
2023/02/04 14:22:09;;;;;;;;;;;;;;;;;;4951830;28;19918;-77
2023/02/04 14:24:37;;;;;;;;;;;;;;;;;;4956798;28;20017;-77
2023/02/04 14:27:06;;;;;;;;;;;;;;;;;;4952078;28;19925;-77
2023/02/04 14:29:32;;;;;;;;;;;;;;;;;;4951473;28;20226;-77
2023/02/04 14:31:58;;;;;;;;;;;;;;;;;;4952243;28;19949;-77
2023/02/04 14:34:23;;;;;;;;;;;;;;;;;;4953066;28;19926;-77
2023/02/04 14:36:49;;;;;;;;;;;;;;;;;;4945761;28;19945;-78
2023/02/04 14:39:15;;;;;;;;;;;;;;;;;;4952104;28;20369;-77
2023/02/04 14:41:41;;;;;;;;;;;;;;;;;;4950918;28;19981;-78
2023/02/04 14:44:07;;;;;;;;;;;;;;;;;;4951055;28;20585;-77
2023/02/04 14:46:33;;;;;;;;;;;;;;;;;;4950721;28;19922;-77
2023/02/04 14:48:59;;;;;;;;;;;;;;;;;;4946721;28;19938;-77
2023/02/04 14:51:25;;;;;;;;;;;;;;;;;;4947176;28;20188;-77
2023/02/04 14:53:51;;;;;;;;;;;;;;;;;;4948499;28;20380;-77
2023/02/04 14:56:17;;;;;;;;;;;;;;;;;;4954152;28;19925;-77
2023/02/04 14:58:43;;;;;;;;;;;;;;;;;;4947101;28;20311;-78
2023/02/04 15:01:09;;;;;;;;;;;;;;;;;;4946236;28;19918;-77
2023/02/04 15:03:34;;;;;;;;;;;;;;;;;;4948100;28;19952;-77
2023/02/04 15:06:00;;;;;;;;;;;;;;;;;;4942624;28;19932;-77
2023/02/04 15:08:26;;;;;;;;;;;;;;;;;;4955195;28;19918;-77
2023/02/04 15:10:52;;;;;;;;;;;;;;;;;;4950746;28;19918;-77
2023/02/04 15:13:18;;;;;;;;;;;;;;;;;;4945945;28;20293;-78
2023/02/04 15:15:44;;;;;;;;;;;;;;;;;;4933179;28;19918;-77
2023/02/04 15:18:10;;;;;;;;;;;;;;;;;;4956417;28;19922;-77
2023/02/04 15:20:36;;;;;;;;;;;;;;;;;;4931954;28;19918;-77
2023/02/04 15:23:02;;;;;;;;;;;;;;;;;;4953940;28;20389;-78
2023/02/04 15:25:28;;;;;;;;;;;;;;;;;;4951961;28;19922;-77
2023/02/04 15:27:54;;;;;;;;;;;;;;;;;;4949958;28;19926;-78
2023/02/04 15:30:19;;;;;;;;;;;;;;;;;;4954698;28;19922;-77
2023/02/04 15:32:45;;;;;;;;;;;;;;;;;;4951723;28;20438;-77
2023/02/04 15:35:11;;;;;;;;;;;;;;;;;;4944228;28;19948;-77
2023/02/04 15:37:37;;;;;;;;;;;;;;;;;;4950504;28;20400;-77
2023/02/04 15:40:03;;;;;;;;;;;;;;;;;;4945780;28;21846;-77
2023/02/04 15:42:29;;;;;;;;;;;;;;;;;;4952637;28;19918;-77
2023/02/04 15:44:55;;;;;;;;;;;;;;;;;;4949991;28;20005;-78
2023/02/04 15:47:21;;;;;;;;;;;;;;;;;;4945727;28;19922;-77
2023/02/04 15:49:47;;;;;;;;;;;;;;;;;;4953351;28;19929;-77
2023/02/04 15:52:13;;;;;;;;;;;;;;;;;;4950816;28;19930;-77
2023/02/04 15:54:39;;;;;;;;;;;;;;;;;;4954004;28;19918;-77
2023/02/04 15:57:05;;;;;;;;;;;;;;;;;;4969036;28;19929;-77
2023/02/04 15:59:30;;;;;;;;;;;;;;;;;;4952636;28;19921;-77
2023/02/04 16:01:57;;;;;;;;;;;;;;;;;;4944123;28;19921;-77
2023/02/04 16:04:22;;;;;;;;;;;;;;;;;;4950834;28;19918;-76
2023/02/04 16:06:48;;;;;;;;;;;;;;;;;;4966375;28;20037;-76
2023/02/04 16:09:14;;;;;;;;;;;;;;;;;;4953436;28;19918;-77
2023/02/04 16:11:40;;;;;;;;;;;;;;;;;;4947742;28;19928;-76
2023/02/04 16:14:06;;;;;;;;;;;;;;;;;;4948760;28;19984;-77
2023/02/04 16:16:32;;;;;;;;;;;;;;;;;;4946220;28;19945;-76
2023/02/04 16:18:58;;;;;;;;;;;;;;;;;;4946668;28;19918;-76
2023/02/04 16:21:24;;;;;;;;;;;8.30;99.90;;;;;;4964939;28;19926;-76
2023/02/04 16:23:49;;;;;;;;;;;;;;;;;;4948857;28;19934;-76
2023/02/04 16:26:15;;;;;;;;;;;;;;;;;;4961193;28;20377;-76
2023/02/04 16:28:41;;;;;;;;;;;;;;;;;;4942510;28;19922;-76
2023/02/04 16:31:08;;;;;;;;;;;;;;;;;;4953686;28;19928;-76
2023/02/04 16:33:34;;;;;;;;;;;;;;;;;;4943977;28;20300;-76
2023/02/04 16:36:00;;;;;;;;;;;;;;;;;;4944378;28;19921;-76
2023/02/04 16:38:26;;;;;;;;;;;;;;;;;;4954018;28;19926;-76